sensor_id;sensor_type;location;lat;lon;timestamp;temperature;humidity
24470;DHT22;12635;50.852;5.676;2023-05-10T00:01:59;12.60;99.90
24470;DHT22;12635;50.852;5.676;2023-05-10T00:04:26;12.60;99.90
24470;DHT22;12635;50.852;5.676;2023-05-10T00:06:53;12.70;99.90
24470;DHT22;12635;50.852;5.676;2023-05-10T00:09:20;12.60;99.90
24470;DHT22;12635;50.852;5.676;2023-05-10T00:11:47;12.60;99.90
24470;DHT22;12635;50.852;5.676;2023-05-10T00:14:14;12.60;99.90
24470;DHT22;12635;50.852;5.676;2023-05-10T00:16:41;12.60;99.90
24470;DHT22;12635;50.852;5.676;2023-05-10T00:19:09;12.60;99.90
24470;DHT22;12635;50.852;5.676;2023-05-10T00:21:36;12.60;99.90
24470;DHT22;12635;50.852;5.676;2023-05-10T00:24:03;12.60;99.90
24470;DHT22;12635;50.852;5.676;2023-05-10T00:26:30;12.60;99.90
24470;DHT22;12635;50.852;5.676;2023-05-10T00:28:56;12.60;99.90
24470;DHT22;12635;50.852;5.676;2023-05-10T00:31:23;12.60;99.90
24470;DHT22;12635;50.852;5.676;2023-05-10T00:33:50;12.60;99.90
24470;DHT22;12635;50.852;5.676;2023-05-10T00:36:18;12.60;99.90
24470;DHT22;12635;50.852;5.676;2023-05-10T00:38:46;12.60;99.90
24470;DHT22;12635;50.852;5.676;2023-05-10T00:41:13;12.50;99.90
24470;DHT22;12635;50.852;5.676;2023-05-10T00:43:39;12.50;99.90
24470;DHT22;12635;50.852;5.676;2023-05-10T00:46:06;12.50;99.90
24470;DHT22;12635;50.852;5.676;2023-05-10T00:48:34;12.50;99.90
24470;DHT22;12635;50.852;5.676;2023-05-10T00:51:01;12.50;99.90
24470;DHT22;12635;50.852;5.676;2023-05-10T00:53:29;12.50;99.90
24470;DHT22;12635;50.852;5.676;2023-05-10T00:55:57;12.50;99.90
24470;DHT22;12635;50.852;5.676;2023-05-10T00:58:24;12.60;99.90
24470;DHT22;12635;50.852;5.676;2023-05-10T01:00:54;12.60;99.90
24470;DHT22;12635;50.852;5.676;2023-05-10T01:03:21;12.60;99.90
24470;DHT22;12635;50.852;5.676;2023-05-10T01:05:48;12.60;99.90
24470;DHT22;12635;50.852;5.676;2023-05-10T01:08:15;12.50;99.90
24470;DHT22;12635;50.852;5.676;2023-05-10T01:10:43;12.50;99.90
24470;DHT22;12635;50.852;5.676;2023-05-10T01:13:11;12.50;99.90
24470;DHT22;12635;50.852;5.676;2023-05-10T01:15:37;12.60;99.90
24470;DHT22;12635;50.852;5.676;2023-05-10T01:18:05;12.50;99.90
24470;DHT22;12635;50.852;5.676;2023-05-10T01:20:35;12.60;99.90
24470;DHT22;12635;50.852;5.676;2023-05-10T01:23:27;12.50;99.90
24470;DHT22;12635;50.852;5.676;2023-05-10T01:26:16;12.50;99.90
24470;DHT22;12635;50.852;5.676;2023-05-10T01:34:16;12.50;99.90
24470;DHT22;12635;50.852;5.676;2023-05-10T01:36:45;12.50;99.90
24470;DHT22;12635;50.852;5.676;2023-05-10T01:39:15;12.50;99.90
24470;DHT22;12635;50.852;5.676;2023-05-10T01:41:45;12.50;99.90
24470;DHT22;12635;50.852;5.676;2023-05-10T01:44:17;12.50;99.90
24470;DHT22;12635;50.852;5.676;2023-05-10T01:46:45;12.50;99.90
24470;DHT22;12635;50.852;5.676;2023-05-10T01:49:19;12.50;99.90
24470;DHT22;12635;50.852;5.676;2023-05-10T01:51:49;12.50;99.90
24470;DHT22;12635;50.852;5.676;2023-05-10T01:54:19;12.50;99.90
24470;DHT22;12635;50.852;5.676;2023-05-10T01:56:47;12.50;99.90
24470;DHT22;12635;50.852;5.676;2023-05-10T01:59:15;12.50;99.90
24470;DHT22;12635;50.852;5.676;2023-05-10T02:01:43;12.50;99.90
24470;DHT22;12635;50.852;5.676;2023-05-10T02:04:11;12.50;99.90
24470;DHT22;12635;50.852;5.676;2023-05-10T02:06:41;12.50;99.90
24470;DHT22;12635;50.852;5.676;2023-05-10T02:09:09;12.50;99.90
24470;DHT22;12635;50.852;5.676;2023-05-10T02:11:37;12.50;99.90
24470;DHT22;12635;50.852;5.676;2023-05-10T02:14:04;12.40;99.90
24470;DHT22;12635;50.852;5.676;2023-05-10T02:16:32;12.40;99.90
24470;DHT22;12635;50.852;5.676;2023-05-10T02:18:59;12.40;99.90
24470;DHT22;12635;50.852;5.676;2023-05-10T02:21:28;12.40;99.90
24470;DHT22;12635;50.852;5.676;2023-05-10T02:23:57;12.40;99.90
24470;DHT22;12635;50.852;5.676;2023-05-10T02:26:24;12.40;99.90
24470;DHT22;12635;50.852;5.676;2023-05-10T02:28:52;12.40;99.90
24470;DHT22;12635;50.852;5.676;2023-05-10T02:31:20;12.30;99.90
24470;DHT22;12635;50.852;5.676;2023-05-10T02:33:47;12.30;99.90
24470;DHT22;12635;50.852;5.676;2023-05-10T02:36:14;12.30;99.90
24470;DHT22;12635;50.852;5.676;2023-05-10T02:38:42;12.30;99.90
24470;DHT22;12635;50.852;5.676;2023-05-10T02:41:11;12.30;99.90
24470;DHT22;12635;50.852;5.676;2023-05-10T02:43:38;12.30;99.90
24470;DHT22;12635;50.852;5.676;2023-05-10T02:46:06;12.30;99.90
24470;DHT22;12635;50.852;5.676;2023-05-10T02:48:33;12.30;99.90
24470;DHT22;12635;50.852;5.676;2023-05-10T02:51:00;12.30;99.90
24470;DHT22;12635;50.852;5.676;2023-05-10T02:53:30;12.30;99.90
24470;DHT22;12635;50.852;5.676;2023-05-10T02:55:58;12.30;99.90
24470;DHT22;12635;50.852;5.676;2023-05-10T02:58:27;12.30;99.90
24470;DHT22;12635;50.852;5.676;2023-05-10T03:00:54;12.30;99.90
24470;DHT22;12635;50.852;5.676;2023-05-10T03:03:21;12.30;99.90
24470;DHT22;12635;50.852;5.676;2023-05-10T03:05:48;12.30;99.90
24470;DHT22;12635;50.852;5.676;2023-05-10T03:08:14;12.30;99.90
24470;DHT22;12635;50.852;5.676;2023-05-10T03:10:47;12.30;99.90
24470;DHT22;12635;50.852;5.676;2023-05-10T03:13:20;12.30;99.90
24470;DHT22;12635;50.852;5.676;2023-05-10T03:15:55;12.30;99.90
24470;DHT22;12635;50.852;5.676;2023-05-10T03:18:27;12.30;99.90
24470;DHT22;12635;50.852;5.676;2023-05-10T03:20:56;12.30;99.90
24470;DHT22;12635;50.852;5.676;2023-05-10T03:23:26;12.30;99.90
24470;DHT22;12635;50.852;5.676;2023-05-10T03:25:53;12.30;99.90
24470;DHT22;12635;50.852;5.676;2023-05-10T03:28:21;12.30;99.90
24470;DHT22;12635;50.852;5.676;2023-05-10T03:30:48;12.30;99.90
24470;DHT22;12635;50.852;5.676;2023-05-10T03:33:17;12.30;99.90
24470;DHT22;12635;50.852;5.676;2023-05-10T03:35:44;12.30;99.90
24470;DHT22;12635;50.852;5.676;2023-05-10T03:38:11;12.30;99.90
24470;DHT22;12635;50.852;5.676;2023-05-10T03:40:38;12.30;99.90
24470;DHT22;12635;50.852;5.676;2023-05-10T03:43:05;12.30;99.90
24470;DHT22;12635;50.852;5.676;2023-05-10T03:45:32;12.30;99.90
24470;DHT22;12635;50.852;5.676;2023-05-10T03:47:59;12.30;99.90
24470;DHT22;12635;50.852;5.676;2023-05-10T03:50:27;12.40;99.90
24470;DHT22;12635;50.852;5.676;2023-05-10T03:52:54;12.30;99.90
24470;DHT22;12635;50.852;5.676;2023-05-10T03:55:21;12.30;99.90
24470;DHT22;12635;50.852;5.676;2023-05-10T03:57:47;12.30;99.90
24470;DHT22;12635;50.852;5.676;2023-05-10T04:00:15;12.30;99.90
24470;DHT22;12635;50.852;5.676;2023-05-10T04:02:42;12.30;99.90
24470;DHT22;12635;50.852;5.676;2023-05-10T04:05:09;12.30;99.90
24470;DHT22;12635;50.852;5.676;2023-05-10T04:07:37;12.30;99.90
24470;DHT22;12635;50.852;5.676;2023-05-10T04:10:04;12.40;99.90
24470;DHT22;12635;50.852;5.676;2023-05-10T04:12:31;12.40;99.90
24470;DHT22;12635;50.852;5.676;2023-05-10T04:14:58;12.40;99.90
24470;DHT22;12635;50.852;5.676;2023-05-10T04:17:25;12.40;99.90
24470;DHT22;12635;50.852;5.676;2023-05-10T04:19:52;12.40;99.90
24470;DHT22;12635;50.852;5.676;2023-05-10T04:22:20;12.40;99.90
24470;DHT22;12635;50.852;5.676;2023-05-10T04:24:48;12.40;99.90
24470;DHT22;12635;50.852;5.676;2023-05-10T04:27:15;12.40;99.90
24470;DHT22;12635;50.852;5.676;2023-05-10T04:29:42;12.40;99.90
24470;DHT22;12635;50.852;5.676;2023-05-10T04:32:08;12.40;99.90
24470;DHT22;12635;50.852;5.676;2023-05-10T04:34:35;12.40;99.90
24470;DHT22;12635;50.852;5.676;2023-05-10T04:37:02;12.40;99.90
24470;DHT22;12635;50.852;5.676;2023-05-10T04:39:29;12.40;99.90
24470;DHT22;12635;50.852;5.676;2023-05-10T04:41:57;12.40;99.90
24470;DHT22;12635;50.852;5.676;2023-05-10T04:44:24;12.40;99.90
24470;DHT22;12635;50.852;5.676;2023-05-10T04:46:51;12.40;99.90
24470;DHT22;12635;50.852;5.676;2023-05-10T04:49:18;12.40;99.90
24470;DHT22;12635;50.852;5.676;2023-05-10T04:51:45;12.40;99.90
24470;DHT22;12635;50.852;5.676;2023-05-10T04:54:12;12.40;99.90
24470;DHT22;12635;50.852;5.676;2023-05-10T04:56:39;12.40;99.90
24470;DHT22;12635;50.852;5.676;2023-05-10T04:59:07;12.30;99.90
24470;DHT22;12635;50.852;5.676;2023-05-10T05:01:34;12.40;99.90
24470;DHT22;12635;50.852;5.676;2023-05-10T05:04:01;12.30;99.90
24470;DHT22;12635;50.852;5.676;2023-05-10T05:06:28;12.30;99.90
24470;DHT22;12635;50.852;5.676;2023-05-10T05:08:54;12.30;99.90
24470;DHT22;12635;50.852;5.676;2023-05-10T05:11:21;12.30;99.90
24470;DHT22;12635;50.852;5.676;2023-05-10T05:13:48;12.30;99.90
24470;DHT22;12635;50.852;5.676;2023-05-10T05:16:16;12.40;99.90
24470;DHT22;12635;50.852;5.676;2023-05-10T05:18:43;12.30;99.90
24470;DHT22;12635;50.852;5.676;2023-05-10T05:21:13;12.30;99.90
24470;DHT22;12635;50.852;5.676;2023-05-10T05:23:40;12.30;99.90
24470;DHT22;12635;50.852;5.676;2023-05-10T05:26:07;12.30;99.90
24470;DHT22;12635;50.852;5.676;2023-05-10T05:28:34;12.30;99.90
24470;DHT22;12635;50.852;5.676;2023-05-10T05:31:02;12.30;99.90
24470;DHT22;12635;50.852;5.676;2023-05-10T05:33:30;12.30;99.90
24470;DHT22;12635;50.852;5.676;2023-05-10T05:36:00;12.30;99.90
24470;DHT22;12635;50.852;5.676;2023-05-10T05:38:27;12.30;99.90
24470;DHT22;12635;50.852;5.676;2023-05-10T05:40:54;12.30;99.90
24470;DHT22;12635;50.852;5.676;2023-05-10T05:43:21;12.30;99.90
24470;DHT22;12635;50.852;5.676;2023-05-10T05:45:48;12.30;99.90
24470;DHT22;12635;50.852;5.676;2023-05-10T05:48:15;12.30;99.90
24470;DHT22;12635;50.852;5.676;2023-05-10T05:50:43;12.20;99.90
24470;DHT22;12635;50.852;5.676;2023-05-10T05:53:10;12.20;99.90
24470;DHT22;12635;50.852;5.676;2023-05-10T05:55:37;12.20;99.90
24470;DHT22;12635;50.852;5.676;2023-05-10T05:58:04;12.30;99.90
24470;DHT22;12635;50.852;5.676;2023-05-10T06:00:31;12.20;99.90
24470;DHT22;12635;50.852;5.676;2023-05-10T06:02:58;12.30;99.90
24470;DHT22;12635;50.852;5.676;2023-05-10T06:05:25;12.30;99.90
24470;DHT22;12635;50.852;5.676;2023-05-10T06:07:53;12.30;99.90
24470;DHT22;12635;50.852;5.676;2023-05-10T06:10:20;12.40;99.90
24470;DHT22;12635;50.852;5.676;2023-05-10T06:12:47;12.40;99.90
24470;DHT22;12635;50.852;5.676;2023-05-10T06:15:14;12.40;99.90
24470;DHT22;12635;50.852;5.676;2023-05-10T06:17:40;12.40;99.90
24470;DHT22;12635;50.852;5.676;2023-05-10T06:20:09;12.40;99.90
24470;DHT22;12635;50.852;5.676;2023-05-10T06:22:36;12.40;99.90
24470;DHT22;12635;50.852;5.676;2023-05-10T06:25:05;12.40;99.90
24470;DHT22;12635;50.852;5.676;2023-05-10T06:27:31;12.30;99.90
24470;DHT22;12635;50.852;5.676;2023-05-10T06:29:58;12.30;99.90
24470;DHT22;12635;50.852;5.676;2023-05-10T06:32:25;12.20;99.90
24470;DHT22;12635;50.852;5.676;2023-05-10T06:34:52;12.20;99.90
24470;DHT22;12635;50.852;5.676;2023-05-10T06:37:19;12.20;99.90
24470;DHT22;12635;50.852;5.676;2023-05-10T06:39:46;12.30;99.90
24470;DHT22;12635;50.852;5.676;2023-05-10T06:42:14;12.30;99.90
24470;DHT22;12635;50.852;5.676;2023-05-10T06:44:41;12.40;99.90
24470;DHT22;12635;50.852;5.676;2023-05-10T06:47:08;12.40;99.90
24470;DHT22;12635;50.852;5.676;2023-05-10T06:49:35;12.50;99.90
24470;DHT22;12635;50.852;5.676;2023-05-10T06:52:02;12.50;99.90
24470;DHT22;12635;50.852;5.676;2023-05-10T06:54:29;12.60;99.90
24470;DHT22;12635;50.852;5.676;2023-05-10T06:56:56;12.50;99.90
24470;DHT22;12635;50.852;5.676;2023-05-10T06:59:24;12.50;99.90
24470;DHT22;12635;50.852;5.676;2023-05-10T07:01:51;12.60;99.90
24470;DHT22;12635;50.852;5.676;2023-05-10T07:04:19;12.60;99.90
24470;DHT22;12635;50.852;5.676;2023-05-10T07:06:45;12.60;99.90
24470;DHT22;12635;50.852;5.676;2023-05-10T07:09:12;12.60;99.90
24470;DHT22;12635;50.852;5.676;2023-05-10T07:11:40;12.70;99.90
24470;DHT22;12635;50.852;5.676;2023-05-10T07:14:07;12.70;99.90
24470;DHT22;12635;50.852;5.676;2023-05-10T07:16:35;12.70;99.90
24470;DHT22;12635;50.852;5.676;2023-05-10T07:19:02;12.70;99.90
24470;DHT22;12635;50.852;5.676;2023-05-10T07:21:30;12.70;99.90
24470;DHT22;12635;50.852;5.676;2023-05-10T07:23:57;12.70;99.90
24470;DHT22;12635;50.852;5.676;2023-05-10T07:26:25;12.60;99.90
24470;DHT22;12635;50.852;5.676;2023-05-10T07:28:51;12.60;99.90
24470;DHT22;12635;50.852;5.676;2023-05-10T07:31:18;12.50;99.90
24470;DHT22;12635;50.852;5.676;2023-05-10T07:33:47;12.60;99.90
24470;DHT22;12635;50.852;5.676;2023-05-10T07:36:13;12.60;99.90
24470;DHT22;12635;50.852;5.676;2023-05-10T07:38:40;12.60;99.90
24470;DHT22;12635;50.852;5.676;2023-05-10T07:41:07;12.50;99.90
24470;DHT22;12635;50.852;5.676;2023-05-10T07:43:34;12.40;99.90
24470;DHT22;12635;50.852;5.676;2023-05-10T07:46:01;12.30;99.90
24470;DHT22;12635;50.852;5.676;2023-05-10T07:48:28;12.20;99.90
24470;DHT22;12635;50.852;5.676;2023-05-10T07:50:56;12.10;99.90
24470;DHT22;12635;50.852;5.676;2023-05-10T07:53:23;11.90;99.90
24470;DHT22;12635;50.852;5.676;2023-05-10T07:55:50;11.80;99.90
24470;DHT22;12635;50.852;5.676;2023-05-10T07:58:17;11.70;99.90
24470;DHT22;12635;50.852;5.676;2023-05-10T08:00:43;11.70;99.90
24470;DHT22;12635;50.852;5.676;2023-05-10T08:03:10;11.70;99.90
24470;DHT22;12635;50.852;5.676;2023-05-10T08:05:37;11.70;99.90
24470;DHT22;12635;50.852;5.676;2023-05-10T08:08:06;11.60;99.90
24470;DHT22;12635;50.852;5.676;2023-05-10T08:10:32;11.50;99.90
24470;DHT22;12635;50.852;5.676;2023-05-10T08:12:59;11.40;99.90
24470;DHT22;12635;50.852;5.676;2023-05-10T08:15:26;11.50;99.90
24470;DHT22;12635;50.852;5.676;2023-05-10T08:17:53;11.50;99.90
24470;DHT22;12635;50.852;5.676;2023-05-10T08:20:20;11.50;99.90
24470;DHT22;12635;50.852;5.676;2023-05-10T08:22:47;11.50;99.90
24470;DHT22;12635;50.852;5.676;2023-05-10T08:25:16;11.50;99.90
24470;DHT22;12635;50.852;5.676;2023-05-10T08:27:43;11.60;99.90
24470;DHT22;12635;50.852;5.676;2023-05-10T08:30:10;11.60;99.90
24470;DHT22;12635;50.852;5.676;2023-05-10T08:32:38;11.60;99.90
24470;DHT22;12635;50.852;5.676;2023-05-10T08:35:05;11.60;99.90
24470;DHT22;12635;50.852;5.676;2023-05-10T08:37:32;11.60;99.90
24470;DHT22;12635;50.852;5.676;2023-05-10T08:39:59;11.70;99.90
24470;DHT22;12635;50.852;5.676;2023-05-10T08:42:28;11.60;99.90
24470;DHT22;12635;50.852;5.676;2023-05-10T08:44:57;11.70;99.90
24470;DHT22;12635;50.852;5.676;2023-05-10T08:47:24;11.70;99.90
24470;DHT22;12635;50.852;5.676;2023-05-10T08:49:51;11.80;99.90
24470;DHT22;12635;50.852;5.676;2023-05-10T08:52:18;11.80;99.90
24470;DHT22;12635;50.852;5.676;2023-05-10T08:54:45;11.80;99.90
24470;DHT22;12635;50.852;5.676;2023-05-10T08:57:13;11.80;99.90
24470;DHT22;12635;50.852;5.676;2023-05-10T08:59:41;11.80;99.90
24470;DHT22;12635;50.852;5.676;2023-05-10T09:02:08;11.90;99.90
24470;DHT22;12635;50.852;5.676;2023-05-10T09:04:36;11.90;99.90
24470;DHT22;12635;50.852;5.676;2023-05-10T09:07:03;12.00;99.90
24470;DHT22;12635;50.852;5.676;2023-05-10T09:09:30;12.10;99.90
24470;DHT22;12635;50.852;5.676;2023-05-10T09:11:57;12.30;99.90
24470;DHT22;12635;50.852;5.676;2023-05-10T09:14:24;12.40;99.90
24470;DHT22;12635;50.852;5.676;2023-05-10T09:16:53;12.30;99.90
24470;DHT22;12635;50.852;5.676;2023-05-10T09:19:20;12.40;99.90
24470;DHT22;12635;50.852;5.676;2023-05-10T09:21:47;12.80;99.90
24470;DHT22;12635;50.852;5.676;2023-05-10T09:24:15;13.20;99.90
24470;DHT22;12635;50.852;5.676;2023-05-10T09:26:51;13.50;99.90
24470;DHT22;12635;50.852;5.676;2023-05-10T09:29:17;13.80;99.90
24470;DHT22;12635;50.852;5.676;2023-05-10T09:31:45;13.30;99.90
24470;DHT22;12635;50.852;5.676;2023-05-10T09:34:17;13.10;99.90
24470;DHT22;12635;50.852;5.676;2023-05-10T09:36:51;13.10;99.90
24470;DHT22;12635;50.852;5.676;2023-05-10T09:39:18;13.30;99.90
24470;DHT22;12635;50.852;5.676;2023-05-10T09:41:45;13.40;99.90
24470;DHT22;12635;50.852;5.676;2023-05-10T09:44:16;13.60;99.90
24470;DHT22;12635;50.852;5.676;2023-05-10T09:46:48;14.00;99.90
24470;DHT22;12635;50.852;5.676;2023-05-10T09:49:16;14.30;99.90
24470;DHT22;12635;50.852;5.676;2023-05-10T09:51:43;13.90;99.90
24470;DHT22;12635;50.852;5.676;2023-05-10T09:54:10;13.90;99.90
24470;DHT22;12635;50.852;5.676;2023-05-10T09:56:37;14.10;99.90
24470;DHT22;12635;50.852;5.676;2023-05-10T09:59:06;14.40;99.90
24470;DHT22;12635;50.852;5.676;2023-05-10T10:01:33;14.10;99.90
24470;DHT22;12635;50.852;5.676;2023-05-10T10:04:01;14.10;99.90
24470;DHT22;12635;50.852;5.676;2023-05-10T10:06:30;14.00;99.90
24470;DHT22;12635;50.852;5.676;2023-05-10T10:09:01;14.00;99.90
24470;DHT22;12635;50.852;5.676;2023-05-10T10:11:28;14.20;99.90
24470;DHT22;12635;50.852;5.676;2023-05-10T10:13:55;14.60;99.90
24470;DHT22;12635;50.852;5.676;2023-05-10T10:16:22;14.60;99.90
24470;DHT22;12635;50.852;5.676;2023-05-10T10:18:49;14.30;99.90
24470;DHT22;12635;50.852;5.676;2023-05-10T10:21:16;14.20;99.90
24470;DHT22;12635;50.852;5.676;2023-05-10T10:23:44;14.30;99.90
24470;DHT22;12635;50.852;5.676;2023-05-10T10:26:12;14.20;99.90
24470;DHT22;12635;50.852;5.676;2023-05-10T10:28:41;14.00;99.90
24470;DHT22;12635;50.852;5.676;2023-05-10T10:31:13;13.60;99.90
24470;DHT22;12635;50.852;5.676;2023-05-10T10:33:54;13.70;99.90
24470;DHT22;12635;50.852;5.676;2023-05-10T10:36:22;13.80;99.90
24470;DHT22;12635;50.852;5.676;2023-05-10T10:38:57;13.80;99.90
24470;DHT22;12635;50.852;5.676;2023-05-10T10:41:30;13.70;99.90
24470;DHT22;12635;50.852;5.676;2023-05-10T10:49:24;13.40;99.90
24470;DHT22;12635;50.852;5.676;2023-05-10T10:54:38;13.70;99.90
24470;DHT22;12635;50.852;5.676;2023-05-10T10:57:11;13.80;99.90
24470;DHT22;12635;50.852;5.676;2023-05-10T10:59:41;14.30;99.90
24470;DHT22;12635;50.852;5.676;2023-05-10T11:02:09;14.50;99.90
24470;DHT22;12635;50.852;5.676;2023-05-10T11:04:42;14.30;99.90
24470;DHT22;12635;50.852;5.676;2023-05-10T11:07:17;14.10;99.90
24470;DHT22;12635;50.852;5.676;2023-05-10T11:09:47;14.10;99.90
24470;DHT22;12635;50.852;5.676;2023-05-10T11:12:14;14.10;99.90
24470;DHT22;12635;50.852;5.676;2023-05-10T11:14:41;14.10;99.90
24470;DHT22;12635;50.852;5.676;2023-05-10T11:20:10;14.00;99.90
24470;DHT22;12635;50.852;5.676;2023-05-10T11:25:27;14.00;99.90
24470;DHT22;12635;50.852;5.676;2023-05-10T11:27:54;14.00;99.90
24470;DHT22;12635;50.852;5.676;2023-05-10T11:30:22;14.00;99.90
24470;DHT22;12635;50.852;5.676;2023-05-10T11:32:49;14.00;99.90
24470;DHT22;12635;50.852;5.676;2023-05-10T11:35:16;14.00;99.90
24470;DHT22;12635;50.852;5.676;2023-05-10T11:37:42;14.00;99.90
24470;DHT22;12635;50.852;5.676;2023-05-10T11:40:14;14.40;99.90
24470;DHT22;12635;50.852;5.676;2023-05-10T11:42:42;14.70;99.90
24470;DHT22;12635;50.852;5.676;2023-05-10T11:45:10;14.80;99.90
24470;DHT22;12635;50.852;5.676;2023-05-10T11:47:36;15.00;99.90
24470;DHT22;12635;50.852;5.676;2023-05-10T11:50:05;15.30;99.90
24470;DHT22;12635;50.852;5.676;2023-05-10T11:52:35;15.10;99.90
24470;DHT22;12635;50.852;5.676;2023-05-10T11:55:02;15.30;99.90
24470;DHT22;12635;50.852;5.676;2023-05-10T11:57:29;15.40;99.90
24470;DHT22;12635;50.852;5.676;2023-05-10T11:59:58;15.70;99.90
24470;DHT22;12635;50.852;5.676;2023-05-10T12:02:25;15.60;99.90
24470;DHT22;12635;50.852;5.676;2023-05-10T12:04:52;15.70;99.90
24470;DHT22;12635;50.852;5.676;2023-05-10T12:07:19;15.80;99.90
24470;DHT22;12635;50.852;5.676;2023-05-10T12:12:27;16.20;99.90
24470;DHT22;12635;50.852;5.676;2023-05-10T12:15:03;16.40;99.90
24470;DHT22;12635;50.852;5.676;2023-05-10T12:17:30;16.20;99.90
24470;DHT22;12635;50.852;5.676;2023-05-10T12:19:58;16.80;99.90
24470;DHT22;12635;50.852;5.676;2023-05-10T12:22:25;16.80;99.90
24470;DHT22;12635;50.852;5.676;2023-05-10T12:24:52;16.70;99.90
24470;DHT22;12635;50.852;5.676;2023-05-10T12:27:19;16.40;99.90
24470;DHT22;12635;50.852;5.676;2023-05-10T12:29:46;16.40;99.90
24470;DHT22;12635;50.852;5.676;2023-05-10T12:32:16;16.60;99.90
24470;DHT22;12635;50.852;5.676;2023-05-10T12:34:43;16.50;99.90
24470;DHT22;12635;50.852;5.676;2023-05-10T12:37:13;16.50;99.90
24470;DHT22;12635;50.852;5.676;2023-05-10T12:39:40;16.70;99.90
24470;DHT22;12635;50.852;5.676;2023-05-10T12:42:07;16.70;99.90
24470;DHT22;12635;50.852;5.676;2023-05-10T12:44:34;16.50;99.90
24470;DHT22;12635;50.852;5.676;2023-05-10T12:47:01;16.70;99.90
24470;DHT22;12635;50.852;5.676;2023-05-10T12:49:29;16.40;99.90
24470;DHT22;12635;50.852;5.676;2023-05-10T12:51:56;16.50;99.90
24470;DHT22;12635;50.852;5.676;2023-05-10T12:54:23;16.70;99.90
24470;DHT22;12635;50.852;5.676;2023-05-10T12:56:50;17.00;99.90
24470;DHT22;12635;50.852;5.676;2023-05-10T12:59:17;17.10;99.90
24470;DHT22;12635;50.852;5.676;2023-05-10T13:01:43;16.90;99.90
24470;DHT22;12635;50.852;5.676;2023-05-10T13:04:10;16.70;99.90
24470;DHT22;12635;50.852;5.676;2023-05-10T13:06:39;16.60;99.90
24470;DHT22;12635;50.852;5.676;2023-05-10T13:09:06;16.40;99.90
24470;DHT22;12635;50.852;5.676;2023-05-10T13:11:33;16.30;99.90
24470;DHT22;12635;50.852;5.676;2023-05-10T13:14:00;15.90;99.90
24470;DHT22;12635;50.852;5.676;2023-05-10T13:16:28;15.90;99.90
24470;DHT22;12635;50.852;5.676;2023-05-10T13:18:55;15.90;99.90
24470;DHT22;12635;50.852;5.676;2023-05-10T13:21:22;16.00;99.90
24470;DHT22;12635;50.852;5.676;2023-05-10T13:23:51;16.00;99.90
24470;DHT22;12635;50.852;5.676;2023-05-10T13:26:18;16.10;99.90
24470;DHT22;12635;50.852;5.676;2023-05-10T13:28:45;16.30;99.90
24470;DHT22;12635;50.852;5.676;2023-05-10T13:31:12;16.00;99.90
24470;DHT22;12635;50.852;5.676;2023-05-10T13:33:39;16.20;99.90
24470;DHT22;12635;50.852;5.676;2023-05-10T13:36:06;16.10;99.90
24470;DHT22;12635;50.852;5.676;2023-05-10T13:38:33;16.20;99.90
24470;DHT22;12635;50.852;5.676;2023-05-10T13:41:01;16.20;99.90
24470;DHT22;12635;50.852;5.676;2023-05-10T13:43:28;16.00;99.90
24470;DHT22;12635;50.852;5.676;2023-05-10T13:45:55;15.90;99.90
24470;DHT22;12635;50.852;5.676;2023-05-10T13:48:22;15.80;99.90
24470;DHT22;12635;50.852;5.676;2023-05-10T13:50:49;15.70;99.90
24470;DHT22;12635;50.852;5.676;2023-05-10T13:53:16;15.70;99.90
24470;DHT22;12635;50.852;5.676;2023-05-10T13:55:43;15.70;99.90
24470;DHT22;12635;50.852;5.676;2023-05-10T13:58:11;15.70;99.90
24470;DHT22;12635;50.852;5.676;2023-05-10T14:00:38;15.80;99.90
24470;DHT22;12635;50.852;5.676;2023-05-10T14:03:05;16.00;99.90
24470;DHT22;12635;50.852;5.676;2023-05-10T14:05:34;16.00;99.90
24470;DHT22;12635;50.852;5.676;2023-05-10T14:08:01;15.90;99.90
24470;DHT22;12635;50.852;5.676;2023-05-10T14:10:29;16.00;99.90
24470;DHT22;12635;50.852;5.676;2023-05-10T14:12:56;15.90;99.90
24470;DHT22;12635;50.852;5.676;2023-05-10T14:15:24;16.10;99.90
24470;DHT22;12635;50.852;5.676;2023-05-10T14:17:51;16.20;99.90
24470;DHT22;12635;50.852;5.676;2023-05-10T14:20:18;16.60;99.90
24470;DHT22;12635;50.852;5.676;2023-05-10T14:22:45;16.60;99.90
24470;DHT22;12635;50.852;5.676;2023-05-10T14:25:12;16.80;99.90
24470;DHT22;12635;50.852;5.676;2023-05-10T14:27:39;16.40;99.90
24470;DHT22;12635;50.852;5.676;2023-05-10T14:30:07;16.30;99.90
24470;DHT22;12635;50.852;5.676;2023-05-10T14:32:35;16.50;99.90
24470;DHT22;12635;50.852;5.676;2023-05-10T14:35:03;16.60;99.90
24470;DHT22;12635;50.852;5.676;2023-05-10T14:37:31;16.80;99.90
24470;DHT22;12635;50.852;5.676;2023-05-10T14:39:58;17.00;99.90
24470;DHT22;12635;50.852;5.676;2023-05-10T14:42:24;17.20;99.90
24470;DHT22;12635;50.852;5.676;2023-05-10T14:44:52;17.70;99.90
24470;DHT22;12635;50.852;5.676;2023-05-10T14:47:19;18.60;99.90
24470;DHT22;12635;50.852;5.676;2023-05-10T14:49:47;19.90;99.90
24470;DHT22;12635;50.852;5.676;2023-05-10T14:52:14;20.30;99.90
24470;DHT22;12635;50.852;5.676;2023-05-10T14:54:41;20.20;99.90
24470;DHT22;12635;50.852;5.676;2023-05-10T14:57:07;19.00;99.90
24470;DHT22;12635;50.852;5.676;2023-05-10T14:59:34;18.60;99.90
24470;DHT22;12635;50.852;5.676;2023-05-10T15:02:01;18.10;99.90
24470;DHT22;12635;50.852;5.676;2023-05-10T15:04:28;17.80;99.90
24470;DHT22;12635;50.852;5.676;2023-05-10T15:06:56;17.50;99.90
24470;DHT22;12635;50.852;5.676;2023-05-10T15:09:25;17.20;99.90
24470;DHT22;12635;50.852;5.676;2023-05-10T15:11:52;17.20;99.90
24470;DHT22;12635;50.852;5.676;2023-05-10T15:14:19;17.40;99.90
24470;DHT22;12635;50.852;5.676;2023-05-10T15:16:46;17.40;99.90
24470;DHT22;12635;50.852;5.676;2023-05-10T15:19:13;17.20;99.90
24470;DHT22;12635;50.852;5.676;2023-05-10T15:21:40;16.80;99.90
24470;DHT22;12635;50.852;5.676;2023-05-10T15:24:11;16.70;99.90
24470;DHT22;12635;50.852;5.676;2023-05-10T15:26:38;16.60;99.90
24470;DHT22;12635;50.852;5.676;2023-05-10T15:29:04;16.70;99.90
24470;DHT22;12635;50.852;5.676;2023-05-10T15:31:31;16.70;99.90
24470;DHT22;12635;50.852;5.676;2023-05-10T15:34:00;16.70;99.90
24470;DHT22;12635;50.852;5.676;2023-05-10T15:36:27;16.80;99.90
24470;DHT22;12635;50.852;5.676;2023-05-10T15:38:54;17.00;99.90
24470;DHT22;12635;50.852;5.676;2023-05-10T15:41:22;16.90;99.90
24470;DHT22;12635;50.852;5.676;2023-05-10T15:43:50;16.90;99.90
24470;DHT22;12635;50.852;5.676;2023-05-10T15:46:16;16.60;99.90
24470;DHT22;12635;50.852;5.676;2023-05-10T15:48:43;16.50;99.90
24470;DHT22;12635;50.852;5.676;2023-05-10T15:51:10;16.80;99.90
24470;DHT22;12635;50.852;5.676;2023-05-10T15:53:37;16.70;99.90
24470;DHT22;12635;50.852;5.676;2023-05-10T15:56:04;16.60;99.90